Norfolk, Nebraska
Current Conditions -  °F | °C
As of 6:38 AM on Thursday 23 Oct 2014 (Local Time) from KOFK Reporting Station
Haze Haze  
Wind Chill: 41°   Ceiling: Unl
Heat Index: 41°   Visibility: 3mi
Dew Point: 41°   Wind: 3mph
Humidity: 100%   Direction: 270°W
Pressure: 30.05"   Gusts: NA
Location:  42.03°N, 97.41°W
Report Text: KOFK 231138Z AUTO 27003KT 3SM BR SCT001 05/05 A3005 RMK AO2 T00500050
Loading
Personal Weather Stations






























Interactive Weather Map
Tropical Storm Tracking
New forecast layout! Learn more

10-Day Weather Forecast

Advertisements
Track Severe Weather on mobile